Time;durP1;ratioP1;P1;durP2;ratioP2;P2;SDS_P1;SDS_P2;PMS_P1;PMS_P2;Temp;Humidity;BMP_temperature;BMP_pressure;BME280_temperature;BME280_humidity;BME280_pressure;Samples;Min_cycle;Max_cycle;Signal;HPM_P1;HPM_P2
2022/12/04 00:00:38;;;;;;;;;;;14.60;52.00;;;;;;5071310;28;20252;-91
2022/12/04 00:03:03;;;;;;;;;;;14.60;51.90;;;;;;5071513;28;19958;-91
2022/12/04 00:05:29;;;;;;;;;;;14.50;52.00;;;;;;5072510;28;19919;-92
2022/12/04 00:07:55;;;;;;;;;;;14.50;52.00;;;;;;5072905;28;19993;-91
2022/12/04 00:10:22;;;;;;;;;;;14.50;52.10;;;;;;5074179;28;20344;-91
2022/12/04 00:12:48;;;;;;;;;;;14.50;52.00;;;;;;5073270;28;20172;-91
2022/12/04 00:15:17;;;;;;;;;;;14.40;52.20;;;;;;5073278;28;19919;-91
2022/12/04 00:17:49;;;;;;;;;;;14.40;52.70;;;;;;5074120;28;19908;-91
2022/12/04 00:20:14;;;;;;;;;;;14.40;52.30;;;;;;5074538;28;19909;-91
2022/12/04 00:22:40;;;;;;;;;;;14.40;52.20;;;;;;5072644;28;19935;-91
2022/12/04 00:25:09;;;;;;;;;;;14.30;52.00;;;;;;5074138;28;19908;-91
2022/12/04 00:27:34;;;;;;;;;;;14.30;52.10;;;;;;5074570;28;19923;-91
2022/12/04 00:30:00;;;;;;;;;;;14.30;52.30;;;;;;5073190;28;19909;-92
2022/12/04 00:32:25;;;;;;;;;;;14.30;52.30;;;;;;5072423;28;19909;-91
2022/12/04 00:34:52;;;;;;;;;;;14.30;52.30;;;;;;5071006;28;19919;-92
2022/12/04 00:37:17;;;;;;;;;;;14.20;52.30;;;;;;5071514;28;19909;-92
2022/12/04 00:39:44;;;;;;;;;;;14.20;52.40;;;;;;5071758;28;19917;-92
2022/12/04 00:42:09;;;;;;;;;;;14.20;52.40;;;;;;5073413;28;19948;-91
2022/12/04 00:44:35;;;;;;;;;;;14.10;52.40;;;;;;5073058;28;19956;-91
2022/12/04 00:47:00;;;;;;;;;;;14.10;52.50;;;;;;5073647;28;20085;-92
2022/12/04 00:49:26;;;;;;;;;;;14.10;52.50;;;;;;5073422;28;19912;-91
2022/12/04 00:51:51;;;;;;;;;;;14.10;52.60;;;;;;5073616;28;19940;-91
2022/12/04 00:54:17;;;;;;;;;;;14.10;52.60;;;;;;5077847;28;19997;-91
2022/12/04 00:56:45;;;;;;;;;;;14.10;52.70;;;;;;5077887;28;19908;-91
2022/12/04 00:59:12;;;;;;;;;;;14.00;52.70;;;;;;5075972;28;19919;-91
2022/12/04 01:01:37;;;;;;;;;;;14.00;52.70;;;;;;5075135;28;20069;-91
2022/12/04 01:04:06;;;;;;;;;;;14.00;52.70;;;;;;5074898;28;20331;-92
2022/12/04 01:06:32;;;;;;;;;;;14.00;52.70;;;;;;5075617;28;20005;-92
2022/12/04 01:08:59;;;;;;;;;;;14.00;52.70;;;;;;5076047;28;19908;-91
2022/12/04 01:11:25;;;;;;;;;;;14.00;52.80;;;;;;5076480;28;20328;-91
2022/12/04 01:13:52;;;;;;;;;;;14.00;52.80;;;;;;5075676;28;19920;-91
2022/12/04 01:16:19;;;;;;;;;;;14.00;52.80;;;;;;5072802;28;20040;-91
2022/12/04 01:18:45;;;;;;;;;;;13.90;52.80;;;;;;5075294;28;20171;-91
2022/12/04 01:21:13;;;;;;;;;;;13.90;52.80;;;;;;5075242;28;20109;-92
2022/12/04 01:23:39;;;;;;;;;;;13.90;52.80;;;;;;5074679;28;19951;-92
2022/12/04 01:26:04;;;;;;;;;;;13.90;52.80;;;;;;5074372;28;19947;-92
2022/12/04 01:28:30;;;;;;;;;;;13.90;52.80;;;;;;5072821;28;20231;-91
2022/12/04 01:31:03;;;;;;;;;;;13.90;52.80;;;;;;5074759;28;19908;-91
2022/12/04 01:33:29;;;;;;;;;;;13.80;52.70;;;;;;5075559;28;20000;-91
2022/12/04 01:35:55;;;;;;;;;;;13.80;52.70;;;;;;5075037;28;19999;-91
2022/12/04 01:38:21;;;;;;;;;;;13.80;52.70;;;;;;5074982;28;19909;-91
2022/12/04 01:40:47;;;;;;;;;;;13.80;52.70;;;;;;5075960;28;19985;-91
2022/12/04 01:43:13;;;;;;;;;;;13.80;52.70;;;;;;5075858;28;19954;-91
2022/12/04 01:45:40;;;;;;;;;;;13.80;52.70;;;;;;5075052;28;19909;-91
2022/12/04 01:48:17;;;;;;;;;;;13.80;52.80;;;;;;5074927;28;19912;-91
2022/12/04 01:50:43;;;;;;;;;;;13.80;52.80;;;;;;5074997;28;19912;-91
2022/12/04 01:53:08;;;;;;;;;;;13.70;52.80;;;;;;5075230;28;19993;-91
2022/12/04 01:55:37;;;;;;;;;;;13.70;52.80;;;;;;5075343;28;20184;-91
2022/12/04 01:58:03;;;;;;;;;;;13.70;52.90;;;;;;5074804;28;19936;-91
2022/12/04 02:00:28;;;;;;;;;;;13.70;52.80;;;;;;5074543;28;19908;-91
2022/12/04 02:02:54;;;;;;;;;;;13.70;52.80;;;;;;5075046;28;19909;-91
2022/12/04 02:05:24;;;;;;;;;;;13.70;52.90;;;;;;5076843;28;20163;-91
2022/12/04 02:07:56;;;;;;;;;;;13.70;52.90;;;;;;5075641;28;20003;-91
2022/12/04 02:10:23;;;;;;;;;;;13.70;52.90;;;;;;5075923;28;20086;-91
2022/12/04 02:13:07;;;;;;;;;;;13.60;52.90;;;;;;5076312;28;19916;-91
2022/12/04 02:15:51;;;;;;;;;;;13.70;53.00;;;;;;5075267;28;20255;-91
2022/12/04 02:18:17;;;;;;;;;;;13.60;53.00;;;;;;5075607;28;19920;-91
2022/12/04 02:20:58;;;;;;;;;;;13.60;52.90;;;;;;5074843;28;19909;-92
2022/12/04 02:23:31;;;;;;;;;;;13.60;52.80;;;;;;5074648;28;19908;-91
2022/12/04 02:26:05;;;;;;;;;;;13.60;52.90;;;;;;5074424;28;19908;-91
2022/12/04 02:28:35;;;;;;;;;;;13.60;52.90;;;;;;5075417;28;19916;-91
2022/12/04 02:31:07;;;;;;;;;;;13.50;52.90;;;;;;5075608;28;19917;-91
2022/12/04 02:33:44;;;;;;;;;;;13.50;52.90;;;;;;5075384;28;19908;-91
2022/12/04 02:36:13;;;;;;;;;;;13.50;52.90;;;;;;5074082;28;20182;-91
2022/12/04 02:38:40;;;;;;;;;;;13.50;52.90;;;;;;5075600;28;19908;-92
2022/12/04 02:41:26;;;;;;;;;;;13.50;52.90;;;;;;5076561;28;19915;-91
2022/12/04 02:43:55;;;;;;;;;;;13.40;52.90;;;;;;5075671;28;19919;-91
2022/12/04 02:46:27;;;;;;;;;;;13.40;53.00;;;;;;5074331;28;20305;-91
2022/12/04 02:48:56;;;;;;;;;;;13.40;53.00;;;;;;5073991;28;19977;-91
2022/12/04 02:51:22;;;;;;;;;;;13.30;53.00;;;;;;5073814;28;19984;-91
2022/12/04 02:53:57;;;;;;;;;;;13.30;53.00;;;;;;5072462;28;19966;-91
2022/12/04 02:56:27;;;;;;;;;;;13.30;53.10;;;;;;5072978;28;19920;-91
2022/12/04 02:59:19;;;;;;;;;;;13.30;53.10;;;;;;5073641;28;19920;-91
2022/12/04 03:01:49;;;;;;;;;;;13.30;53.10;;;;;;5071373;28;19909;-90
2022/12/04 03:04:19;;;;;;;;;;;13.20;53.20;;;;;;5076637;28;19965;-91
2022/12/04 03:06:59;;;;;;;;;;;13.20;53.30;;;;;;5076285;28;19912;-91
2022/12/04 03:09:30;;;;;;;;;;;13.20;53.30;;;;;;5076994;28;20183;-91
2022/12/04 03:12:01;;;;;;;;;;;13.10;53.30;;;;;;5075801;28;19919;-91
2022/12/04 03:14:30;;;;;;;;;;;13.10;53.40;;;;;;5076426;28;19959;-91
2022/12/04 03:17:00;;;;;;;;;;;13.10;53.40;;;;;;5075146;28;20240;-91
2022/12/04 03:19:31;;;;;;;;;;;13.00;53.40;;;;;;5076052;28;20259;-91
2022/12/04 03:21:58;;;;;;;;;;;13.00;53.40;;;;;;5075280;28;19970;-91
2022/12/04 03:24:32;;;;;;;;;;;13.00;53.40;;;;;;5075370;28;20236;-91
2022/12/04 03:27:27;;;;;;;;;;;13.00;53.50;;;;;;5072850;28;19913;-91
2022/12/04 03:29:56;;;;;;;;;;;12.90;53.50;;;;;;5057664;28;20218;-91
2022/12/04 03:32:45;;;;;;;;;;;12.90;53.60;;;;;;5074736;28;19975;-92
2022/12/04 03:35:14;;;;;;;;;;;12.90;53.70;;;;;;5064435;28;19950;-91
2022/12/04 03:37:49;;;;;;;;;;;12.90;53.70;;;;;;5075494;28;20160;-90
2022/12/04 03:40:18;;;;;;;;;;;12.80;53.70;;;;;;5075738;28;19916;-91
2022/12/04 03:42:55;;;;;;;;;;;12.80;53.70;;;;;;5074585;28;20312;-91
2022/12/04 03:45:23;;;;;;;;;;;12.70;53.70;;;;;;5075259;28;19915;-91
2022/12/04 03:47:55;;;;;;;;;;;12.70;53.80;;;;;;5072673;28;20456;-91
2022/12/04 03:50:24;;;;;;;;;;;12.70;53.80;;;;;;5074142;28;19916;-91
2022/12/04 03:53:08;;;;;;;;;;;12.60;53.80;;;;;;5075253;28;19912;-91
2022/12/04 03:55:38;;;;;;;;;;;12.60;53.80;;;;;;5075345;28;19916;-91
2022/12/04 03:58:05;;;;;;;;;;;12.60;53.90;;;;;;5074224;28;19909;-91
2022/12/04 04:00:32;;;;;;;;;;;12.50;53.90;;;;;;5075989;28;19908;-91
2022/12/04 04:02:59;;;;;;;;;;;12.40;54.00;;;;;;5074712;28;19919;-91
2022/12/04 04:05:27;;;;;;;;;;;12.40;54.10;;;;;;5074926;28;19921;-92
2022/12/04 04:08:24;;;;;;;;;;;12.40;54.20;;;;;;5074409;28;19920;-91
2022/12/04 04:10:47;;;;;;;;;;;12.30;54.20;;;;;;5074458;28;20349;-91
2022/12/04 04:24:28;;;;;;;;;;;13.40;53.10;;;;;;5074646;28;20409;-91
2022/12/04 04:26:57;;;;;;;;;;;14.20;51.70;;;;;;5073880;28;19959;-91
2022/12/04 04:29:23;;;;;;;;;;;14.60;50.80;;;;;;5074200;28;20183;-91
2022/12/04 04:31:53;;;;;;;;;;;14.80;50.40;;;;;;5075059;28;20328;-91
2022/12/04 04:34:40;;;;;;;;;;;15.10;50.10;;;;;;5074881;28;19908;-92
2022/12/04 04:37:12;;;;;;;;;;;15.30;49.80;;;;;;5075263;28;19919;-91
2022/12/04 04:39:47;;;;;;;;;;;15.60;49.40;;;;;;5074850;28;20280;-91
2022/12/04 04:42:19;;;;;;;;;;;15.80;49.00;;;;;;5075217;28;20003;-91
2022/12/04 04:44:45;;;;;;;;;;;16.00;48.70;;;;;;5074933;28;20227;-91
2022/12/04 04:47:26;;;;;;;;;;;16.10;48.60;;;;;;5073808;28;20023;-91
2022/12/04 04:49:52;;;;;;;;;;;16.20;48.50;;;;;;5074247;28;19931;-91
2022/12/04 04:52:19;;;;;;;;;;;16.40;48.30;;;;;;5075432;28;19908;-91
2022/12/04 04:54:45;;;;;;;;;;;16.60;48.00;;;;;;5074493;28;20002;-91
2022/12/04 04:57:11;;;;;;;;;;;16.70;47.90;;;;;;5074814;28;19917;-92
2022/12/04 04:59:36;;;;;;;;;;;16.80;47.80;;;;;;5075049;28;19909;-91
2022/12/04 05:02:02;;;;;;;;;;;16.80;47.70;;;;;;5076019;28;19993;-91
2022/12/04 05:04:31;;;;;;;;;;;16.80;47.70;;;;;;5075077;28;19971;-92
2022/12/04 05:06:56;;;;;;;;;;;16.90;47.60;;;;;;5074261;28;19912;-91
2022/12/04 05:09:22;;;;;;;;;;;17.00;47.40;;;;;;5073598;28;19946;-91
2022/12/04 05:11:47;;;;;;;;;;;17.10;47.30;;;;;;5073827;28;19917;-91
2022/12/04 05:14:13;;;;;;;;;;;17.20;47.20;;;;;;5073991;28;19916;-91
2022/12/04 05:16:39;;;;;;;;;;;17.30;47.20;;;;;;5073847;28;20185;-91
2022/12/04 05:21:52;;;;;;;;;;;17.40;47.10;;;;;;5075141;28;20260;-91
2022/12/04 05:24:18;;;;;;;;;;;17.50;47.10;;;;;;5075484;28;19909;-91
2022/12/04 05:26:44;;;;;;;;;;;17.60;47.00;;;;;;5074104;28;19944;-91
2022/12/04 05:29:10;;;;;;;;;;;17.60;46.80;;;;;;5074481;28;19913;-91
2022/12/04 05:31:35;;;;;;;;;;;17.60;46.80;;;;;;5072964;28;19916;-92
2022/12/04 05:34:04;;;;;;;;;;;17.70;46.80;;;;;;5074402;28;19909;-91
2022/12/04 05:36:29;;;;;;;;;;;17.60;46.70;;;;;;5074696;28;19943;-92
2022/12/04 05:38:54;;;;;;;;;;;17.70;46.80;;;;;;5076519;28;20007;-92
2022/12/04 05:41:23;;;;;;;;;;;17.80;46.80;;;;;;5077462;28;19948;-92
2022/12/04 05:43:52;;;;;;;;;;;17.80;46.60;;;;;;5077874;28;20285;-91
2022/12/04 05:46:20;;;;;;;;;;;17.80;46.60;;;;;;5076886;28;19917;-92
2022/12/04 05:48:46;;;;;;;;;;;17.90;46.60;;;;;;5076754;28;19920;-91
2022/12/04 05:51:12;;;;;;;;;;;17.80;46.60;;;;;;5077380;28;19908;-91
2022/12/04 05:53:37;;;;;;;;;;;17.80;46.70;;;;;;5077669;28;19915;-91
2022/12/04 05:56:03;;;;;;;;;;;17.70;46.70;;;;;;5077639;28;20174;-91
2022/12/04 05:58:32;;;;;;;;;;;17.60;46.80;;;;;;5077908;28;19908;-92
2022/12/04 06:00:58;;;;;;;;;;;17.50;46.90;;;;;;5078324;28;20003;-91
2022/12/04 06:03:23;;;;;;;;;;;17.40;47.10;;;;;;5078481;28;20062;-92
2022/12/04 06:05:52;;;;;;;;;;;17.30;47.20;;;;;;5077741;28;20169;-91
2022/12/04 06:08:17;;;;;;;;;;;17.20;47.30;;;;;;5077795;28;19947;-91
2022/12/04 06:10:43;;;;;;;;;;;17.10;47.50;;;;;;5077499;28;20187;-91
2022/12/04 06:13:08;;;;;;;;;;;17.00;47.60;;;;;;5077248;28;19916;-92
2022/12/04 06:15:41;;;;;;;;;;;16.90;47.70;;;;;;5077219;28;19962;-91
2022/12/04 06:18:10;;;;;;;;;;;16.70;47.80;;;;;;5076494;28;19908;-91
2022/12/04 06:20:38;;;;;;;;;;;16.60;48.00;;;;;;5075310;28;19908;-91
2022/12/04 06:23:03;;;;;;;;;;;16.50;48.10;;;;;;5076767;28;19909;-92
2022/12/04 06:25:30;;;;;;;;;;;16.50;48.10;;;;;;5076114;28;19920;-92
2022/12/04 06:27:58;;;;;;;;;;;16.50;48.20;;;;;;5075800;28;20241;-91
2022/12/04 06:30:29;;;;;;;;;;;16.50;48.20;;;;;;5076814;28;20270;-91
2022/12/04 06:32:54;;;;;;;;;;;16.50;48.20;;;;;;5076404;28;19908;-91
2022/12/04 06:35:20;;;;;;;;;;;16.60;48.00;;;;;;5075250;28;19975;-91
2022/12/04 06:37:45;;;;;;;;;;;16.60;47.80;;;;;;5075252;28;20179;-92
2022/12/04 06:40:11;;;;;;;;;;;16.70;47.70;;;;;;5075948;28;19916;-92
2022/12/04 06:42:37;;;;;;;;;;;16.70;47.70;;;;;;5075689;28;19908;-91
2022/12/04 06:45:04;;;;;;;;;;;16.80;47.60;;;;;;5073411;28;19916;-92
2022/12/04 06:47:29;;;;;;;;;;;16.90;47.50;;;;;;5075013;28;20007;-91
2022/12/04 06:49:55;;;;;;;;;;;17.00;47.40;;;;;;5074656;28;20259;-91
2022/12/04 06:52:20;;;;;;;;;;;17.10;47.40;;;;;;5076413;28;19917;-91
2022/12/04 06:54:47;;;;;;;;;;;17.10;47.30;;;;;;5076594;28;19971;-91
2022/12/04 06:57:15;;;;;;;;;;;17.10;47.20;;;;;;5076017;28;20011;-91
2022/12/04 06:59:44;;;;;;;;;;;17.20;47.10;;;;;;5074417;28;19909;-91
2022/12/04 07:02:09;;;;;;;;;;;17.30;46.90;;;;;;5074276;28;19916;-91
2022/12/04 07:04:35;;;;;;;;;;;17.50;46.70;;;;;;5074386;28;19909;-92
2022/12/04 07:07:01;;;;;;;;;;;17.50;46.60;;;;;;5073695;28;19986;-91
2022/12/04 07:09:26;;;;;;;;;;;17.50;46.60;;;;;;5074473;28;19908;-91
2022/12/04 07:11:53;;;;;;;;;;;17.50;46.40;;;;;;5073519;28;19931;-91
2022/12/04 07:14:19;;;;;;;;;;;17.50;46.50;;;;;;5073153;28;20221;-91
2022/12/04 07:16:48;;;;;;;;;;;17.60;46.60;;;;;;5073217;28;20298;-91
2022/12/04 07:19:13;;;;;;;;;;;17.60;46.50;;;;;;5074410;28;20149;-91
2022/12/04 07:21:39;;;;;;;;;;;17.60;46.40;;;;;;5074051;28;20016;-92
2022/12/04 07:24:05;;;;;;;;;;;17.60;46.60;;;;;;5074457;28;19908;-92
2022/12/04 07:26:33;;;;;;;;;;;17.60;46.60;;;;;;5073244;28;20027;-92
2022/12/04 07:28:59;;;;;;;;;;;17.60;46.60;;;;;;5074132;28;19909;-91
2022/12/04 07:31:26;;;;;;;;;;;17.50;46.60;;;;;;5074606;28;19919;-91
2022/12/04 07:33:55;;;;;;;;;;;17.40;46.60;;;;;;5074073;28;19971;-91
2022/12/04 07:36:25;;;;;;;;;;;17.30;46.70;;;;;;5073706;28;20206;-92
2022/12/04 07:38:53;;;;;;;;;;;17.20;46.70;;;;;;5073445;28;19912;-91
2022/12/04 07:41:22;;;;;;;;;;;17.20;46.90;;;;;;5072897;28;19923;-91
2022/12/04 07:43:47;;;;;;;;;;;17.00;46.90;;;;;;5073047;28;19916;-92
2022/12/04 07:46:14;;;;;;;;;;;16.90;47.10;;;;;;5072543;28;19922;-91
2022/12/04 07:48:40;;;;;;;;;;;16.90;47.20;;;;;;5073483;28;19922;-92
2022/12/04 07:51:08;;;;;;;;;;;16.80;47.30;;;;;;5074332;28;20186;-91
2022/12/04 07:53:34;;;;;;;;;;;16.80;47.40;;;;;;5072894;28;20003;-92
2022/12/04 07:56:03;;;;;;;;;;;16.70;47.50;;;;;;5071678;28;19998;-91
2022/12/04 07:58:28;;;;;;;;;;;16.70;47.50;;;;;;5073428;28;19920;-91
2022/12/04 08:00:57;;;;;;;;;;;16.70;47.60;;;;;;5073839;28;19919;-91
2022/12/04 08:06:08;;;;;;;;;;;16.70;47.70;;;;;;5050966;28;19909;-91
2022/12/04 08:08:37;;;;;;;;;;;16.80;47.60;;;;;;5072933;28;19912;-91
2022/12/04 08:11:10;;;;;;;;;;;16.90;47.50;;;;;;5073042;28;20222;-92
2022/12/04 08:13:36;;;;;;;;;;;16.90;47.50;;;;;;5073332;28;19909;-92
2022/12/04 08:16:05;;;;;;;;;;;16.90;47.50;;;;;;5072075;28;19909;-92
2022/12/04 08:18:31;;;;;;;;;;;17.00;47.50;;;;;;5073435;28;19919;-91
2022/12/04 08:21:07;;;;;;;;;;;17.00;47.40;;;;;;5072526;28;19908;-92
2022/12/04 08:23:33;;;;;;;;;;;17.10;47.40;;;;;;5072910;28;19908;-92
2022/12/04 08:25:59;;;;;;;;;;;17.20;47.20;;;;;;5072628;28;19909;-92
2022/12/04 08:28:25;;;;;;;;;;;17.30;47.10;;;;;;5072882;28;19913;-92
2022/12/04 08:30:53;;;;;;;;;;;17.30;47.10;;;;;;5072477;28;20182;-92
2022/12/04 08:33:22;;;;;;;;;;;17.40;47.10;;;;;;5072684;28;19909;-91
2022/12/04 08:35:47;;;;;;;;;;;17.40;47.20;;;;;;5072896;28;19989;-92
2022/12/04 08:38:13;;;;;;;;;;;17.60;47.20;;;;;;5072567;28;20181;-91
2022/12/04 08:40:41;;;;;;;;;;;17.70;47.10;;;;;;5071064;28;19944;-92
2022/12/04 08:43:10;;;;;;;;;;;17.70;47.10;;;;;;5071311;28;19923;-92
2022/12/04 08:45:35;;;;;;;;;;;17.80;47.10;;;;;;5072376;28;19978;-91
2022/12/04 08:48:01;;;;;;;;;;;17.80;47.20;;;;;;5072196;28;19982;-92
2022/12/04 08:50:27;;;;;;;;;;;17.80;47.20;;;;;;5071705;28;19908;-92
2022/12/04 08:52:52;;;;;;;;;;;17.90;47.30;;;;;;5071858;28;19934;-92
2022/12/04 08:55:18;;;;;;;;;;;17.90;47.40;;;;;;5072876;28;20058;-91
2022/12/04 08:57:46;;;;;;;;;;;17.80;47.50;;;;;;5072010;28;20203;-92
2022/12/04 09:00:14;;;;;;;;;;;17.80;47.70;;;;;;5070328;28;19970;-92
2022/12/04 09:02:39;;;;;;;;;;;17.70;47.60;;;;;;5071105;28;20247;-92
2022/12/04 09:05:08;;;;;;;;;;;17.70;47.80;;;;;;5070748;28;19920;-91
2022/12/04 09:07:33;;;;;;;;;;;17.60;47.80;;;;;;5072245;28;19912;-92
2022/12/04 09:09:59;;;;;;;;;;;17.60;48.00;;;;;;5073557;28;19915;-92
2022/12/04 09:12:25;;;;;;;;;;;17.50;47.90;;;;;;5072592;28;19915;-91
2022/12/04 09:14:50;;;;;;;;;;;17.50;48.00;;;;;;5075803;28;19908;-92
2022/12/04 09:17:16;;;;;;;;;;;17.40;48.00;;;;;;5075354;28;20304;-92
2022/12/04 09:19:42;;;;;;;;;;;17.30;48.10;;;;;;5075765;28;19916;-92
2022/12/04 09:22:10;;;;;;;;;;;17.30;48.20;;;;;;5075389;28;20359;-92
2022/12/04 09:24:36;;;;;;;;;;;17.30;48.30;;;;;;5075062;28;19909;-92
2022/12/04 09:27:01;;;;;;;;;;;17.20;48.20;;;;;;5075545;28;20078;-92
2022/12/04 09:29:27;;;;;;;;;;;17.20;48.30;;;;;;5075080;28;19912;-92
2022/12/04 09:31:53;;;;;;;;;;;17.20;48.30;;;;;;5075696;28;20236;-92
2022/12/04 09:34:18;;;;;;;;;;;17.20;48.20;;;;;;5074741;28;20161;-91
2022/12/04 09:36:44;;;;;;;;;;;17.10;48.20;;;;;;5076128;28;19908;-91
2022/12/04 09:39:10;;;;;;;;;;;17.10;48.20;;;;;;5075533;28;20007;-92
2022/12/04 09:41:35;;;;;;;;;;;17.10;48.20;;;;;;5075320;28;19999;-91
2022/12/04 09:44:15;;;;;;;;;;;17.10;48.00;;;;;;5072652;28;19909;-91
2022/12/04 09:46:50;;;;;;;;;;;17.20;47.90;;;;;;5072850;28;20183;-91
2022/12/04 09:49:28;;;;;;;;;;;17.30;47.80;;;;;;5072913;28;19912;-91
2022/12/04 09:51:56;;;;;;;;;;;17.30;47.70;;;;;;5073820;28;20049;-91
2022/12/04 09:54:24;;;;;;;;;;;17.30;47.80;;;;;;5073280;28;19931;-91
2022/12/04 09:57:00;;;;;;;;;;;17.10;47.80;;;;;;5074764;28;19995;-91
2022/12/04 09:59:30;;;;;;;;;;;17.00;48.00;;;;;;5074861;28;19913;-91
2022/12/04 10:02:02;;;;;;;;;;;16.80;48.10;;;;;;5074835;28;20309;-91
2022/12/04 10:04:31;;;;;;;;;;;16.70;48.40;;;;;;5074154;28;20046;-91
2022/12/04 10:07:05;;;;;;;;;;;16.50;48.50;;;;;;5074488;28;19956;-91
2022/12/04 10:09:43;;;;;;;;;;;16.40;48.60;;;;;;5074985;28;19958;-91
2022/12/04 10:12:24;;;;;;;;;;;16.40;48.60;;;;;;5074178;28;19963;-91
2022/12/04 10:14:58;;;;;;;;;;;16.40;48.70;;;;;;5073608;28;19909;-91
2022/12/04 10:17:37;;;;;;;;;;;16.50;48.70;;;;;;5073151;28;19908;-90
2022/12/04 10:20:25;;;;;;;;;;;16.80;48.50;;;;;;5073555;28;19908;-91
2022/12/04 10:23:03;;;;;;;;;;;17.10;48.20;;;;;;5073497;28;19909;-90
2022/12/04 10:25:29;;;;;;;;;;;17.40;47.90;;;;;;5072350;28;19970;-91
2022/12/04 10:28:19;;;;;;;;;;;17.50;47.80;;;;;;5071966;28;20045;-91
2022/12/04 10:30:52;;;;;;;;;;;17.50;47.80;;;;;;5072279;28;20179;-91
2022/12/04 10:33:27;;;;;;;;;;;17.60;47.80;;;;;;5070615;28;19912;-91
2022/12/04 10:35:53;;;;;;;;;;;17.50;47.80;;;;;;5071757;28;19915;-92
2022/12/04 10:38:24;;;;;;;;;;;17.60;47.80;;;;;;5072127;28;20199;-91
2022/12/04 10:40:58;;;;;;;;;;;17.60;48.00;;;;;;5070261;28;19920;-92
2022/12/04 10:43:37;;;;;;;;;;;17.60;48.00;;;;;;5069791;28;19919;-91
2022/12/04 10:46:04;;;;;;;;;;;17.60;48.00;;;;;;5072240;28;19990;-91
2022/12/04 10:48:35;;;;;;;;;;;17.70;48.10;;;;;;5071449;28;20171;-91
2022/12/04 10:51:00;;;;;;;;;;;17.70;48.10;;;;;;5072206;28;19908;-91
2022/12/04 10:53:31;;;;;;;;;;;17.70;48.10;;;;;;5072828;28;19918;-90
2022/12/04 10:56:06;;;;;;;;;;;17.70;48.10;;;;;;5074185;28;20266;-91
2022/12/04 10:58:32;;;;;;;;;;;17.70;48.10;;;;;;5073196;28;19909;-92
2022/12/04 11:01:05;;;;;;;;;;;17.80;48.00;;;;;;5072992;28;19908;-91
2022/12/04 11:03:31;;;;;;;;;;;17.80;47.90;;;;;;5072131;28;20030;-92
2022/12/04 11:06:08;;;;;;;;;;;17.70;47.90;;;;;;5072039;28;19908;-92
2022/12/04 11:08:39;;;;;;;;;;;17.70;47.90;;;;;;5073724;28;19917;-92
2022/12/04 11:11:06;;;;;;;;;;;17.70;47.80;;;;;;5072360;28;19908;-92
2022/12/04 11:13:32;;;;;;;;;;;17.70;47.80;;;;;;5072779;28;19908;-92
2022/12/04 11:15:58;;;;;;;;;;;17.70;47.60;;;;;;5072014;28;19908;-91
2022/12/04 11:18:26;;;;;;;;;;;17.70;47.50;;;;;;5073032;28;19920;-92
2022/12/04 11:20:55;;;;;;;;;;;17.70;47.40;;;;;;5072568;28;20176;-92
2022/12/04 11:23:20;;;;;;;;;;;17.60;47.40;;;;;;5073894;28;19908;-92
2022/12/04 11:25:48;;;;;;;;;;;17.60;47.30;;;;;;5073092;28;19909;-92
2022/12/04 11:28:16;;;;;;;;;;;17.60;47.30;;;;;;5071603;28;19922;-91
2022/12/04 11:30:52;;;;;;;;;;;17.60;47.20;;;;;;5072588;28;20152;-92
2022/12/04 11:33:21;;;;;;;;;;;17.60;47.50;;;;;;5070443;28;19938;-92
2022/12/04 11:35:51;;;;;;;;;;;17.60;47.10;;;;;;5070354;28;19913;-92
2022/12/04 11:38:20;;;;;;;;;;;17.60;47.10;;;;;;5069856;28;19959;-92
2022/12/04 11:40:51;;;;;;;;;;;17.60;47.00;;;;;;5070211;28;19916;-92
2022/12/04 11:43:17;;;;;;;;;;;17.50;46.90;;;;;;5067556;28;19969;-91
2022/12/04 11:46:02;;;;;;;;;;;17.50;47.00;;;;;;5069485;28;19909;-91
2022/12/04 11:48:32;;;;;;;;;;;17.50;47.10;;;;;;5068531;28;19912;-91
2022/12/04 11:51:10;;;;;;;;;;;17.40;47.00;;;;;;5071149;28;19935;-92
2022/12/04 11:53:44;;;;;;;;;;;17.40;47.10;;;;;;5070953;28;19919;-92
2022/12/04 11:56:12;;;;;;;;;;;17.40;47.10;;;;;;5069492;28;20181;-92
2022/12/04 11:58:57;;;;;;;;;;;17.50;47.20;;;;;;5070022;28;19940;-92
2022/12/04 12:01:31;;;;;;;;;;;17.50;47.20;;;;;;5071422;28;20015;-91
2022/12/04 12:04:03;;;;;;;;;;;17.50;47.20;;;;;;5071431;28;19908;-92
2022/12/04 12:06:38;;;;;;;;;;;17.50;47.50;;;;;;5069374;28;20321;-92
2022/12/04 12:09:18;;;;;;;;;;;17.50;47.60;;;;;;5070484;28;19917;-92
2022/12/04 12:11:56;;;;;;;;;;;17.60;47.50;;;;;;5069845;28;19909;-92
2022/12/04 12:14:30;;;;;;;;;;;17.70;47.40;;;;;;5070389;28;19973;-92
2022/12/04 12:17:20;;;;;;;;;;;17.80;47.30;;;;;;5069201;28;19909;-92
2022/12/04 12:20:00;;;;;;;;;;;17.80;47.30;;;;;;5069449;28;19995;-92
2022/12/04 12:22:34;;;;;;;;;;;17.80;47.40;;;;;;5071857;28;20050;-91
2022/12/04 12:25:18;;;;;;;;;;;17.80;47.50;;;;;;5071464;28;19944;-91
2022/12/04 12:28:06;;;;;;;;;;;17.80;47.50;;;;;;5070951;28;19955;-91
2022/12/04 12:30:55;;;;;;;;;;;17.90;47.40;;;;;;5069946;28;19912;-92
2022/12/04 12:33:23;;;;;;;;;;;17.90;47.40;;;;;;5070168;28;19909;-92
2022/12/04 12:36:04;;;;;;;;;;;17.90;47.30;;;;;;5070781;28;19974;-92
2022/12/04 12:38:36;;;;;;;;;;;17.90;47.20;;;;;;5068906;28;20148;-92
2022/12/04 12:41:22;;;;;;;;;;;17.90;47.10;;;;;;5071603;28;19955;-92
2022/12/04 12:43:52;;;;;;;;;;;17.80;47.10;;;;;;5030420;28;20081;-91
2022/12/04 12:46:29;;;;;;;;;;;17.70;47.00;;;;;;5072240;28;19908;-92
2022/12/04 12:49:01;;;;;;;;;;;17.70;47.00;;;;;;5074586;28;20170;-92
2022/12/04 12:51:32;;;;;;;;;;;17.70;47.00;;;;;;5074526;28;20052;-92
2022/12/04 12:54:08;;;;;;;;;;;17.70;47.00;;;;;;5074705;28;20294;-92
2022/12/04 12:56:38;;;;;;;;;;;17.70;46.90;;;;;;5076391;28;19928;-92
2022/12/04 12:59:06;;;;;;;;;;;17.60;46.90;;;;;;5075045;28;19909;-92
2022/12/04 13:01:38;;;;;;;;;;;17.60;46.90;;;;;;5075582;28;19974;-92
2022/12/04 13:04:13;;;;;;;;;;;17.60;47.00;;;;;;5073977;28;19940;-92
2022/12/04 13:06:43;;;;;;;;;;;17.50;47.00;;;;;;5073897;28;19963;-92
2022/12/04 13:09:26;;;;;;;;;;;17.40;47.00;;;;;;5074164;28;19974;-92
2022/12/04 13:12:01;;;;;;;;;;;17.40;47.00;;;;;;5074225;28;19916;-92
2022/12/04 13:14:26;;;;;;;;;;;17.40;47.00;;;;;;5074476;28;19991;-92
2022/12/04 13:17:02;;;;;;;;;;;17.30;47.10;;;;;;5073563;28;19923;-92
2022/12/04 13:19:35;;;;;;;;;;;17.30;47.10;;;;;;5076587;28;20041;-92
2022/12/04 13:22:15;;;;;;;;;;;17.20;47.20;;;;;;5075481;28;19912;-92
2022/12/04 13:24:59;;;;;;;;;;;17.20;47.30;;;;;;5075280;28;19920;-92
2022/12/04 13:27:35;;;;;;;;;;;17.20;47.30;;;;;;5076825;28;19955;-91
2022/12/04 13:30:05;;;;;;;;;;;17.20;47.40;;;;;;5074382;28;19908;-92
2022/12/04 13:32:33;;;;;;;;;;;17.10;47.50;;;;;;5075134;28;19908;-92
2022/12/04 13:34:59;;;;;;;;;;;17.00;47.70;;;;;;5072911;28;19915;-92
2022/12/04 13:37:30;;;;;;;;;;;16.90;47.80;;;;;;5073484;28;19916;-92
2022/12/04 13:40:19;;;;;;;;;;;16.80;48.30;;;;;;5073607;28;20167;-91
2022/12/04 13:42:45;;;;;;;;;;;16.60;48.70;;;;;;5062802;28;19916;-92
2022/12/04 13:45:11;;;;;;;;;;;16.50;49.00;;;;;;5074151;28;19908;-92
2022/12/04 13:47:40;;;;;;;;;;;16.30;49.20;;;;;;5074334;28;20251;-92
2022/12/04 13:50:09;;;;;;;;;;;16.20;49.40;;;;;;5073207;28;19938;-92
2022/12/04 13:52:39;;;;;;;;;;;16.20;49.50;;;;;;5074525;28;19909;-92
2022/12/04 13:55:25;;;;;;;;;;;16.20;49.50;;;;;;5076197;28;19978;-91
2022/12/04 13:58:01;;;;;;;;;;;16.30;49.30;;;;;;5072478;28;20009;-92
2022/12/04 14:00:35;;;;;;;;;;;16.80;48.90;;;;;;5071270;28;19908;-92
2022/12/04 14:03:22;;;;;;;;;;;17.40;48.40;;;;;;5071925;28;19908;-92
2022/12/04 14:05:51;;;;;;;;;;;17.60;47.80;;;;;;5072580;28;19908;-93
2022/12/04 14:08:20;;;;;;;;;;;17.70;47.60;;;;;;5071945;28;19921;-92
2022/12/04 14:10:58;;;;;;;;;;;17.80;47.60;;;;;;5072265;28;20186;-92
2022/12/04 14:13:28;;;;;;;;;;;17.80;47.50;;;;;;5072937;28;19935;-92
2022/12/04 14:16:03;;;;;;;;;;;17.90;47.50;;;;;;5072536;28;20017;-92
2022/12/04 14:18:29;;;;;;;;;;;17.90;47.40;;;;;;5073008;28;19909;-92
2022/12/04 14:21:03;;;;;;;;;;;18.00;47.40;;;;;;5074175;28;19915;-92
2022/12/04 14:23:38;;;;;;;;;;;17.90;47.40;;;;;;5075126;28;19919;-92
2022/12/04 14:26:05;;;;;;;;;;;17.90;47.80;;;;;;5073259;28;19908;-92
2022/12/04 14:28:30;;;;;;;;;;;17.90;47.40;;;;;;5072599;28;19912;-92
2022/12/04 14:31:08;;;;;;;;;;;17.80;47.50;;;;;;5072088;28;19908;-92
2022/12/04 14:33:37;;;;;;;;;;;17.80;47.70;;;;;;5073208;28;20146;-92
2022/12/04 14:36:08;;;;;;;;;;;17.70;47.80;;;;;;5071237;28;20195;-92
2022/12/04 14:38:34;;;;;;;;;;;17.60;47.90;;;;;;5070677;28;19991;-92
2022/12/04 14:41:00;;;;;;;;;;;17.50;48.00;;;;;;5071220;28;20026;-92
2022/12/04 14:43:34;;;;;;;;;;;17.40;48.00;;;;;;5072867;28;19909;-91
2022/12/04 14:46:11;;;;;;;;;;;17.40;48.20;;;;;;5072218;28;20124;-92
2022/12/04 14:48:52;;;;;;;;;;;17.20;48.10;;;;;;5073607;28;19970;-92